Terminal Aerodrome Forecast
Issued by NWS

Home | Current Version | Previous Version | Text Only | Print | Product List | Glossary Off
Versions: 1 2 3 4 5 6 7 8 9 10 11 12 13 14 15 16 17 18

000
FTUS43 KBIS 282327
TAFMOT
TAF
KMOT 282327Z 2900/2924 05005KT P6SM VCTS BKN090CB
     FM290500 28004KT P6SM BKN100
     FM290900 28006KT P6SM FEW070
     FM291600 29010KT P6SM SKC=

USA.gov is the U.S. government's official web portal to all federal, state and local government web resources and services.